Time;durP1;ratioP1;P1;durP2;ratioP2;P2;SDS_P1;SDS_P2;PMS_P1;PMS_P2;Temp;Humidity;BMP_temperature;BMP_pressure;BME280_temperature;BME280_humidity;BME280_pressure;Samples;Min_cycle;Max_cycle;Signal;HPM_P1;HPM_P2
2023/02/20 00:00:21;;;;;;;806.20;736.40;;;4.20;99.90;;;;;;5059764;28;20454;-82
2023/02/20 00:02:48;;;;;;;806.10;735.23;;;4.20;99.90;;;;;;5040873;28;20498;-81
2023/02/20 00:05:15;;;;;;;808.23;736.70;;;4.10;99.90;;;;;;5046653;28;20447;-81
2023/02/20 00:07:42;;;;;;;805.67;732.57;;;4.10;99.90;;;;;;5060198;28;20451;-82
2023/02/20 00:10:10;;;;;;;807.27;732.03;;;4.10;99.90;;;;;;5059660;28;20454;-82
2023/02/20 00:12:39;;;;;;;792.67;718.40;;;4.10;99.90;;;;;;5059395;28;20475;-83
2023/02/20 00:15:06;;;;;;;789.67;715.20;;;4.10;99.90;;;;;;5059384;28;20455;-82
2023/02/20 00:17:33;;;;;;;790.73;714.37;;;4.00;99.90;;;;;;5060115;28;20451;-81
2023/02/20 00:20:00;;;;;;;780.67;702.77;;;4.10;99.90;;;;;;5060487;28;20447;-81
2023/02/20 00:22:27;;;;;;;757.10;680.80;;;4.20;99.90;;;;;;5059973;28;20475;-83
2023/02/20 00:24:54;;;;;;;755.13;679.53;;;4.20;99.90;;;;;;5059688;28;20443;-82
2023/02/20 00:27:21;;;;;;;753.57;677.80;;;4.30;99.90;;;;;;5040755;28;20460;-81
2023/02/20 00:29:49;;;;;;;760.33;685.17;;;4.30;99.90;;;;;;5056477;28;20526;-81
2023/02/20 00:32:16;;;;;;;761.20;685.87;;;4.40;99.90;;;;;;5059777;28;20458;-82
2023/02/20 00:34:43;;;;;;;763.97;688.33;;;4.30;99.90;;;;;;5059158;28;20452;-78
2023/02/20 00:37:09;;;;;;;761.00;685.57;;;4.30;99.90;;;;;;5059770;28;20460;-83
2023/02/20 00:39:36;;;;;;;756.67;681.87;;;4.20;99.90;;;;;;5060090;28;20826;-82
2023/02/20 00:42:03;;;;;;;758.20;682.80;;;4.30;99.90;;;;;;5059919;28;20471;-81
2023/02/20 00:44:30;;;;;;;761.33;686.40;;;4.30;99.90;;;;;;5059411;28;20498;-83
2023/02/20 00:46:58;;;;;;;762.80;687.80;;;4.30;99.90;;;;;;5058808;28;20819;-81
2023/02/20 00:49:24;;;;;;;762.40;686.73;;;4.40;99.90;;;;;;5059411;28;20456;-81
2023/02/20 00:51:51;;;;;;;756.20;680.63;;;4.40;99.90;;;;;;5059590;28;20447;-82
2023/02/20 00:54:18;;;;;;;751.17;674.97;;;4.40;99.90;;;;;;5058809;28;20472;-81
2023/02/20 00:56:45;;;;;;;756.90;682.10;;;4.50;99.90;;;;;;5059068;28;20452;-81
2023/02/20 00:59:12;;;;;;;756.93;683.10;;;4.60;99.90;;;;;;5059993;28;20447;-81
2023/02/20 01:01:38;;;;;;;754.70;681.10;;;4.50;99.90;;;;;;5059515;28;20448;-81
2023/02/20 01:04:06;;;;;;;755.80;683.17;;;4.60;99.90;;;;;;5058987;28;20479;-80
2023/02/20 01:06:33;;;;;;;761.43;690.17;;;4.70;99.90;;;;;;5059044;28;20455;-82
2023/02/20 01:09:00;;;;;;;758.77;688.77;;;4.70;99.90;;;;;;5059186;28;20454;-82
2023/02/20 01:11:27;;;;;;;760.10;690.93;;;4.80;99.90;;;;;;5059428;28;20474;-81
2023/02/20 01:13:53;;;;;;;762.80;694.30;;;4.90;99.90;;;;;;5060008;28;20842;-82
2023/02/20 01:16:20;;;;;;;768.73;701.47;;;4.80;99.90;;;;;;5058751;28;20451;-81
2023/02/20 01:18:50;;;;;;;771.53;704.93;;;4.90;99.90;;;;;;5059033;28;20460;-81
2023/02/20 01:21:18;;;;;;;782.23;716.50;;;4.90;99.90;;;;;;5059707;28;20455;-81
2023/02/20 01:23:45;;;;;;;780.77;715.20;;;4.90;99.90;;;;;;5058450;28;20483;-82
2023/02/20 01:26:12;;;;;;;783.13;719.03;;;4.90;99.90;;;;;;5059046;28;20458;-81
2023/02/20 01:28:39;;;;;;;786.00;722.80;;;4.80;99.90;;;;;;5059501;28;20461;-81
2023/02/20 01:31:07;;;;;;;792.03;728.67;;;4.80;99.90;;;;;;5058996;28;20850;-81
2023/02/20 01:33:33;;;;;;;784.03;721.23;;;4.80;99.90;;;;;;5058376;28;20667;-80
2023/02/20 01:36:00;;;;;;;789.43;726.70;;;4.70;99.90;;;;;;5058094;28;20452;-83
2023/02/20 01:38:28;;;;;;;791.77;729.40;;;4.80;99.90;;;;;;5058283;28;20448;-82
2023/02/20 01:40:55;;;;;;;776.93;715.73;;;4.80;99.90;;;;;;5058349;28;20455;-81
2023/02/20 01:43:22;;;;;;;769.70;708.20;;;4.70;99.90;;;;;;5058857;28;20479;-81
2023/02/20 01:45:48;;;;;;;772.57;711.97;;;4.70;99.90;;;;;;5057378;28;20458;-83
2023/02/20 01:48:22;;;;;;;759.97;700.23;;;4.70;99.90;;;;;;5058841;28;20805;-80
2023/02/20 01:50:52;;;;;;;767.27;707.80;;;4.80;99.90;;;;;;5058289;28;20456;-81
2023/02/20 01:53:23;;;;;;;753.47;693.90;;;4.80;99.90;;;;;;5059164;28;20463;-81
2023/02/20 01:55:56;;;;;;;750.27;688.40;;;4.90;99.90;;;;;;5057772;28;20444;-82
2023/02/20 01:58:28;;;;;;;743.03;682.70;;;4.90;99.90;;;;;;5058785;28;20953;-83
2023/02/20 02:00:55;;;;;;;733.47;674.30;;;5.20;99.90;;;;;;5058284;28;20459;-81
2023/02/20 02:03:25;;;;;;;721.83;665.13;;;5.30;99.90;;;;;;5058375;28;20977;-81
2023/02/20 02:05:55;;;;;;;723.80;670.70;;;5.40;99.90;;;;;;5057479;28;20451;-81
2023/02/20 02:08:23;;;;;;;701.57;651.67;;;5.50;99.90;;;;;;5058938;28;20452;-82
2023/02/20 02:10:56;;;;;;;686.93;640.93;;;5.50;99.90;;;;;;5058760;28;20447;-82
2023/02/20 02:13:23;;;;;;;687.60;643.20;;;5.50;99.90;;;;;;5058441;28;20729;-81
2023/02/20 02:15:52;;;;;;;677.30;635.63;;;5.40;99.90;;;;;;5057201;28;20448;-82
2023/02/20 02:18:39;;;;;;;680.33;639.07;;;5.40;99.90;;;;;;5057994;28;20455;-81
2023/02/20 02:21:49;;;;;;;668.70;630.10;;;5.30;99.90;;;;;;5045191;28;20456;-82
2023/02/20 02:24:43;;;;;;;667.30;629.03;;;5.40;99.90;;;;;;5058212;28;20475;-81
2023/02/20 02:27:42;;;;;;;676.13;636.57;;;5.30;99.90;;;;;;5054534;28;20775;-81
2023/02/20 02:30:47;;;;;;;675.87;635.97;;;5.30;99.90;;;;;;5057262;28;20450;-81
2023/02/20 02:33:54;;;;;;;690.13;649.60;;;5.30;99.90;;;;;;5055293;28;20471;-82
2023/02/20 02:36:39;;;;;;;704.80;661.87;;;5.20;99.90;;;;;;5057435;28;20454;-81
2023/02/20 02:39:13;;;;;;;708.50;664.70;;;5.20;99.90;;;;;;5057619;28;20462;-81
2023/02/20 02:41:45;;;;;;;710.37;665.37;;;5.30;99.90;;;;;;5058246;28;20452;-81
2023/02/20 02:44:18;;;;;;;704.17;659.50;;;5.20;99.90;;;;;;5057920;28;20475;-81
2023/02/20 02:46:54;;;;;;;704.67;658.70;;;5.30;99.90;;;;;;5057248;28;20451;-82
2023/02/20 02:49:26;;;;;;;680.53;637.87;;;5.30;99.90;;;;;;5056946;28;20832;-81
2023/02/20 02:51:56;;;;;;;686.67;642.70;;;5.50;99.90;;;;;;5058318;28;20447;-81
2023/02/20 02:54:26;;;;;;;672.20;630.70;;;5.50;99.90;;;;;;5057702;28;20470;-81
2023/02/20 02:56:54;;;;;;;672.93;631.90;;;5.50;99.90;;;;;;5057895;28;20478;-82
2023/02/20 02:59:26;;;;;;;686.87;645.73;;;5.40;99.90;;;;;;5057965;28;20474;-81
2023/02/20 03:01:57;;;;;;;680.00;639.77;;;5.40;99.90;;;;;;5042352;28;20451;-81
2023/02/20 03:04:27;;;;;;;685.17;644.10;;;5.40;99.90;;;;;;5057233;28;20471;-83
2023/02/20 03:06:59;;;;;;;695.10;653.07;;;5.40;99.90;;;;;;5057875;28;20450;-81
2023/02/20 03:09:29;;;;;;;686.47;646.77;;;5.40;99.90;;;;;;5057763;28;20443;-81
2023/02/20 03:11:58;;;;;;;703.23;660.43;;;5.30;99.90;;;;;;5061729;28;20462;-82
2023/02/20 03:17:17;;;;;;;688.30;646.70;;;5.40;99.90;;;;;;5061142;28;20969;-81
2023/02/20 03:19:47;;;;;;;696.03;653.00;;;5.40;99.90;;;;;;5061555;28;20455;-83
2023/02/20 03:22:20;;;;;;;674.40;634.17;;;5.40;99.90;;;;;;5061210;28;20458;-81
2023/02/20 03:24:55;;;;;;;679.10;639.10;;;5.30;99.90;;;;;;5061324;28;20475;-81
2023/02/20 03:27:37;;;;;;;669.23;630.07;;;5.30;99.90;;;;;;5062290;28;20442;-82
2023/02/20 03:30:07;;;;;;;684.50;644.20;;;5.30;99.90;;;;;;5061173;28;20478;-81
2023/02/20 03:43:41;;;;;;;618.23;584.40;;;5.40;99.90;;;;;;5061879;28;20481;-82
2023/02/20 03:46:11;;;;;;;624.97;591.63;;;5.40;99.90;;;;;;5062546;28;20447;-81
2023/02/20 03:48:42;;;;;;;623.23;590.53;;;5.30;99.90;;;;;;5067019;28;20451;-81
2023/02/20 03:53:56;;;;;;;604.53;572.67;;;5.30;99.90;;;;;;5061805;28;20458;-81
2023/02/20 03:56:26;;;;;;;597.10;566.90;;;5.30;99.90;;;;;;5060845;28;20439;-82
2023/02/20 03:58:58;;;;;;;605.30;573.80;;;5.40;99.90;;;;;;5062544;28;20443;-82
2023/02/20 04:01:27;;;;;;;593.67;563.67;;;5.30;99.90;;;;;;5062056;28;20981;-82
2023/02/20 04:03:57;;;;;;;605.33;574.33;;;5.30;99.90;;;;;;5061178;28;20490;-81
2023/02/20 04:06:29;;;;;;;618.27;586.47;;;5.30;99.90;;;;;;5068230;28;20554;-81
2023/02/20 04:09:01;;;;;;;606.80;576.40;;;5.40;99.90;;;;;;5063979;28;20455;-82
2023/02/20 04:11:31;;;;;;;584.97;556.00;;;5.40;99.90;;;;;;5062448;28;20910;-82
2023/02/20 04:14:00;;;;;;;566.87;539.73;;;5.50;99.90;;;;;;5061922;28;20838;-82
2023/02/20 04:16:27;;;;;;;576.30;549.20;;;5.40;99.90;;;;;;5061485;28;20958;-81
2023/02/20 04:18:54;;;;;;;586.10;558.30;;;5.30;99.90;;;;;;5061695;28;20451;-81
2023/02/20 04:21:27;;;;;;;597.77;569.57;;;5.30;99.90;;;;;;5061750;28;20459;-82
2023/02/20 04:24:06;;;;;;;640.23;608.13;;;5.10;99.90;;;;;;5060476;28;20479;-82
2023/02/20 04:26:33;;;;;;;661.53;627.47;;;5.00;99.90;;;;;;5061272;28;20436;-81
2023/02/20 04:29:00;;;;;;;674.03;637.63;;;5.00;99.90;;;;;;5061682;28;20474;-83
2023/02/20 04:31:27;;;;;;;666.33;629.97;;;5.00;99.90;;;;;;5061245;28;20456;-81
2023/02/20 04:33:54;;;;;;;667.07;629.80;;;5.00;99.90;;;;;;5060689;28;20475;-81
2023/02/20 04:36:21;;;;;;;678.23;639.57;;;5.00;99.90;;;;;;5060533;28;20461;-81
2023/02/20 04:38:48;;;;;;;690.03;649.63;;;5.00;99.90;;;;;;5060460;28;20477;-84
2023/02/20 04:41:16;;;;;;;692.13;650.27;;;4.90;99.90;;;;;;5060758;28;20451;-83
2023/02/20 04:43:43;;;;;;;692.90;652.27;;;4.80;99.90;;;;;;5060659;28;20476;-82
2023/02/20 04:46:10;;;;;;;704.33;661.77;;;4.70;99.90;;;;;;5054879;28;20458;-82
2023/02/20 04:48:37;;;;;;;713.33;670.17;;;4.70;99.90;;;;;;5060588;28;20443;-82
2023/02/20 04:51:03;;;;;;;728.63;683.27;;;4.50;99.90;;;;;;5060193;28;20463;-81
2023/02/20 04:53:30;;;;;;;732.40;685.70;;;4.40;99.90;;;;;;5060040;28;20463;-81
2023/02/20 04:55:57;;;;;;;739.03;688.70;;;4.50;99.90;;;;;;5059682;28;20447;-82
2023/02/20 04:58:25;;;;;;;735.17;684.30;;;4.40;99.90;;;;;;5059918;28;20447;-82
2023/02/20 05:00:52;;;;;;;737.50;684.37;;;4.40;99.90;;;;;;5040193;28;20459;-81
2023/02/20 05:03:18;;;;;;;727.43;673.20;;;4.50;99.90;;;;;;5040869;28;20476;-82
2023/02/20 05:05:45;;;;;;;714.50;661.50;;;4.50;99.90;;;;;;5049866;28;20471;-84
2023/02/20 05:08:12;;;;;;;720.03;667.03;;;4.50;99.90;;;;;;5060046;28;20454;-81
2023/02/20 05:10:39;;;;;;;721.60;667.27;;;4.50;99.90;;;;;;5057655;28;20460;-81
2023/02/20 05:13:05;;;;;;;713.30;659.03;;;4.50;99.90;;;;;;5052753;28;20498;-82
2023/02/20 05:15:33;;;;;;;706.80;653.97;;;4.50;99.90;;;;;;5060590;28;20450;-81
2023/02/20 05:18:00;;;;;;;714.40;660.53;;;4.60;99.90;;;;;;5054094;28;20465;-81
2023/02/20 05:23:08;;;;;;;719.80;666.70;;;4.50;99.90;;;;;;5058512;28;21035;-81
2023/02/20 05:25:34;;;;;;;717.33;665.30;;;4.50;99.90;;;;;;5060422;28;20482;-82
2023/02/20 05:28:01;;;;;;;710.00;657.23;;;4.50;99.90;;;;;;5060025;28;20451;-81
2023/02/20 05:30:28;;;;;;;718.40;665.97;;;4.50;99.90;;;;;;5060523;28;20447;-81
2023/02/20 05:32:56;;;;;;;708.97;657.27;;;4.50;99.90;;;;;;5059663;28;20478;-80
2023/02/20 05:35:23;;;;;;;722.70;671.07;;;4.60;99.90;;;;;;5059970;28;20456;-82
2023/02/20 05:37:49;;;;;;;710.37;659.20;;;4.60;99.90;;;;;;5059646;28;20454;-81
2023/02/20 05:40:16;;;;;;;706.23;655.40;;;4.50;99.90;;;;;;5059935;28;20847;-81
2023/02/20 05:42:43;;;;;;;712.47;661.23;;;4.50;99.90;;;;;;5059020;28;20479;-85
2023/02/20 05:45:10;;;;;;;709.00;659.80;;;4.60;99.90;;;;;;5053009;28;20485;-81
2023/02/20 05:47:37;;;;;;;718.97;669.37;;;4.40;99.90;;;;;;5060234;28;20451;-81
2023/02/20 05:50:06;;;;;;;714.70;664.10;;;4.40;99.90;;;;;;5060136;28;20447;-81
2023/02/20 05:52:36;;;;;;;723.97;673.47;;;4.40;99.90;;;;;;5058867;28;20494;-80
2023/02/20 05:55:03;;;;;;;716.77;665.67;;;4.40;99.90;;;;;;5058313;28;20451;-81
2023/02/20 05:57:30;;;;;;;731.73;681.03;;;4.40;99.90;;;;;;5058194;28;20463;-82
2023/02/20 05:59:56;;;;;;;736.33;685.03;;;4.30;99.90;;;;;;5059038;28;20462;-82
2023/02/20 06:02:23;;;;;;;739.37;686.30;;;4.30;99.90;;;;;;5059241;28;20475;-81
2023/02/20 06:04:50;;;;;;;734.80;682.27;;;4.30;99.90;;;;;;5058340;28;20468;-82
2023/02/20 06:07:18;;;;;;;733.10;679.87;;;4.40;99.90;;;;;;5057667;28;20451;-81
2023/02/20 06:09:45;;;;;;;728.80;676.13;;;4.30;99.90;;;;;;5058511;28;20452;-80
2023/02/20 06:12:13;;;;;;;731.60;679.37;;;4.30;99.90;;;;;;5058567;28;20946;-80
2023/02/20 06:14:40;;;;;;;735.87;683.00;;;4.20;99.90;;;;;;5058386;28;20530;-81
2023/02/20 06:17:06;;;;;;;738.30;685.40;;;4.30;99.90;;;;;;5058460;28;20447;-81
2023/02/20 06:19:33;;;;;;;738.37;683.97;;;4.20;99.90;;;;;;5058825;28;20454;-84
2023/02/20 06:22:02;;;;;;;734.60;680.03;;;4.20;99.90;;;;;;5058587;28;20475;-79
2023/02/20 06:24:30;;;;;;;735.63;678.60;;;4.20;99.90;;;;;;5058421;28;20485;-82
2023/02/20 06:26:57;;;;;;;750.83;691.63;;;4.20;99.90;;;;;;5055370;28;20458;-80
2023/02/20 06:29:24;;;;;;;748.00;688.27;;;4.20;99.90;;;;;;5057943;28;20953;-79
2023/02/20 06:31:51;;;;;;;757.07;697.13;;;4.30;99.90;;;;;;5057008;28;20447;-83
2023/02/20 06:34:18;;;;;;;742.73;684.67;;;4.30;99.90;;;;;;5056467;28;20848;-81
2023/02/20 06:36:45;;;;;;;749.17;691.57;;;4.20;99.90;;;;;;5055559;28;20452;-80
2023/02/20 06:39:15;;;;;;;739.50;681.20;;;4.40;99.90;;;;;;5058291;28;20451;-81
2023/02/20 06:41:44;;;;;;;749.40;690.13;;;4.40;99.90;;;;;;5058226;28;20448;-82
2023/02/20 06:44:10;;;;;;;745.90;687.73;;;4.50;99.90;;;;;;5056001;28;20485;-81
2023/02/20 06:46:37;;;;;;;736.80;679.30;;;4.40;99.90;;;;;;5057298;28;20454;-82
2023/02/20 06:49:04;;;;;;;740.00;682.90;;;4.50;99.90;;;;;;5058364;28;20454;-82
2023/02/20 06:51:33;;;;;;;733.47;676.73;;;4.60;99.90;;;;;;5058029;28;20447;-81
2023/02/20 06:54:01;;;;;;;732.63;676.83;;;4.70;99.90;;;;;;5058109;28;20474;-81
2023/02/20 06:56:30;;;;;;;728.93;674.20;;;4.90;99.90;;;;;;5057315;28;20450;-81
2023/02/20 06:58:59;;;;;;;721.37;668.07;;;5.10;99.90;;;;;;5057789;28;20455;-80
2023/02/20 07:01:27;;;;;;;704.57;656.13;;;5.30;99.90;;;;;;5056806;28;20451;-81
2023/02/20 07:03:54;;;;;;;690.50;645.93;;;5.40;99.90;;;;;;5056877;28;20472;-81
2023/02/20 07:06:21;;;;;;;661.70;621.77;;;5.50;99.90;;;;;;5056324;28;20471;-81
2023/02/20 07:08:48;;;;;;;634.60;598.30;;;5.60;99.90;;;;;;5056384;28;20459;-80
2023/02/20 07:11:17;;;;;;;588.93;558.40;;;5.70;99.90;;;;;;5056895;28;20461;-81
2023/02/20 07:13:44;;;;;;;544.70;517.40;;;5.70;99.90;;;;;;5055972;28;21009;-80
2023/02/20 07:16:12;;;;;;;499.50;474.90;;;5.80;99.90;;;;;;5056483;28;20453;-83
2023/02/20 07:18:39;;;;;;;399.07;381.27;;;5.80;99.90;;;;;;5056454;28;20455;-82
2023/02/20 07:21:06;;;;;;;379.40;363.30;;;5.80;99.90;;;;;;5056465;28;20478;-80
2023/02/20 07:23:33;;;;;;;388.73;372.03;;;5.80;99.90;;;;;;5055894;28;20478;-80
2023/02/20 07:25:59;;;;;;;372.10;356.17;;;5.80;99.90;;;;;;5056178;28;20475;-79
2023/02/20 07:28:26;;;;;;;346.10;331.37;;;5.80;99.90;;;;;;5055920;28;20454;-80
2023/02/20 07:30:53;;;;;;;284.30;272.33;;;5.90;99.90;;;;;;5056379;28;20463;-80
2023/02/20 07:33:21;;;;;;;227.97;218.53;;;6.00;99.90;;;;;;5056867;28;20471;-80
2023/02/20 07:35:48;;;;;;;215.33;206.50;;;6.00;99.90;;;;;;5055836;28;20451;-80
2023/02/20 07:38:15;;;;;;;210.93;201.33;;;5.90;99.90;;;;;;5056688;28;20462;-80
2023/02/20 07:40:41;;;;;;;207.43;198.93;;;6.00;99.90;;;;;;5055889;28;20454;-80
2023/02/20 07:43:08;;;;;;;183.80;176.40;;;6.00;99.90;;;;;;5055924;28;20486;-81
2023/02/20 07:45:36;;;;;;;177.50;169.80;;;6.10;99.90;;;;;;5056227;28;20467;-81
2023/02/20 07:48:03;;;;;;;150.40;143.93;;;6.20;99.90;;;;;;5055787;28;20451;-81
2023/02/20 07:50:31;;;;;;;162.80;155.43;;;6.10;99.90;;;;;;5056965;28;20522;-80
2023/02/20 07:52:57;;;;;;;132.43;126.63;;;6.20;99.90;;;;;;5057261;28;20474;-81
2023/02/20 07:55:24;;;;;;;93.53;89.17;;;6.20;99.90;;;;;;5056086;28;20448;-80
2023/02/20 07:57:53;;;;;;;61.03;56.73;;;6.30;99.90;;;;;;5060249;28;20447;-80
2023/02/20 08:00:22;;;;;;;48.67;45.83;;;6.50;99.90;;;;;;5061074;28;20487;-81
2023/02/20 08:02:53;;;;;;;42.03;39.13;;;6.50;99.90;;;;;;5065061;28;20503;-80
2023/02/20 08:05:22;;;;;;;48.13;45.13;;;6.60;99.90;;;;;;5066129;28;20495;-80
2023/02/20 08:07:51;;;;;;;36.60;33.00;;;6.50;99.90;;;;;;5065036;28;20461;-79
2023/02/20 08:10:20;;;;;;;30.90;28.60;;;6.50;99.90;;;;;;5057294;28;20539;-80
2023/02/20 08:12:48;;;;;;;42.70;39.47;;;6.50;99.90;;;;;;5058073;28;20486;-78
2023/02/20 08:15:15;;;;;;;27.30;21.23;;;6.40;99.90;;;;;;5058017;28;20924;-79
2023/02/20 08:17:42;;;;;;;27.57;25.13;;;6.50;99.90;;;;;;5059871;28;20284;-82
2023/02/20 08:20:09;;;;;;;37.80;34.70;;;6.50;99.90;;;;;;5059273;28;20454;-80
2023/02/20 08:22:36;;;;;;;35.50;33.00;;;6.50;99.90;;;;;;5059548;28;20471;-80
2023/02/20 08:25:05;;;;;;;28.17;25.53;;;6.60;99.90;;;;;;5060300;28;20489;-80
2023/02/20 08:27:36;;;;;;;19.90;17.97;;;6.60;99.90;;;;;;5062806;28;20478;-82
2023/02/20 08:30:04;;;;;;;22.20;20.03;;;6.60;99.90;;;;;;5062647;28;20483;-81
2023/02/20 08:32:31;;;;;;;19.83;17.23;;;6.50;99.90;;;;;;5061905;28;20479;-80
2023/02/20 08:34:58;;;;;;;21.40;19.40;;;6.60;99.90;;;;;;5066162;28;20454;-80
2023/02/20 08:37:24;;;;;;;22.23;15.10;;;6.50;99.90;;;;;;5063157;28;20447;-82
2023/02/20 08:39:51;;;;;;;20.30;17.43;;;6.50;99.90;;;;;;5063672;28;20448;-80
2023/02/20 08:42:22;;;;;;;21.83;19.53;;;6.50;99.90;;;;;;5066815;28;20456;-80
2023/02/20 08:44:49;;;;;;;21.47;19.30;;;6.50;99.90;;;;;;5064414;28;20508;-81
2023/02/20 08:47:19;;;;;;;20.63;18.43;;;6.50;99.90;;;;;;5063717;28;20917;-81
2023/02/20 08:49:47;;;;;;;22.13;16.27;;;6.60;99.90;;;;;;5066829;28;20463;-81
2023/02/20 08:52:13;;;;;;;19.93;15.73;;;6.70;99.90;;;;;;5067225;28;20457;-81
2023/02/20 08:54:40;;;;;;;23.40;18.33;;;6.70;99.90;;;;;;5067923;28;20526;-81
2023/02/20 08:57:07;;;;;;;20.57;18.67;;;6.80;99.90;;;;;;5067416;28;20515;-82
2023/02/20 08:59:38;;;;;;;21.60;19.30;;;6.90;99.90;;;;;;5068620;28;20455;-80
2023/02/20 09:02:06;;;;;;;25.23;22.63;;;6.90;99.90;;;;;;5066604;28;20443;-82
2023/02/20 09:04:33;;;;;;;20.63;18.43;;;7.00;99.90;;;;;;5065718;28;20954;-82
2023/02/20 09:07:09;;;;;;;22.00;16.33;;;7.10;99.90;;;;;;5065719;28;20481;-81
2023/02/20 09:09:37;;;;;;;19.37;14.00;;;7.20;99.90;;;;;;5068052;28;20454;-82
2023/02/20 09:12:06;;;;;;;15.43;12.47;;;7.20;99.90;;;;;;5066195;28;20494;-82
2023/02/20 09:14:35;;;;;;;20.63;14.30;;;7.20;99.90;;;;;;5064601;28;20493;-81
2023/02/20 09:17:02;;;;;;;24.37;14.13;;;7.10;99.90;;;;;;5064489;28;20451;-82
2023/02/20 09:19:28;;;;;;;25.70;13.67;;;7.20;99.90;;;;;;5064759;28;20450;-82
2023/02/20 09:21:55;;;;;;;20.83;12.80;;;7.20;99.90;;;;;;5064504;28;20458;-81
2023/02/20 09:24:22;;;;;;;25.03;17.13;;;7.30;99.90;;;;;;5064371;28;20475;-82
2023/02/20 09:26:49;;;;;;;25.20;14.97;;;7.30;99.90;;;;;;5064047;28;20475;-81
2023/02/20 09:29:16;;;;;;;17.73;12.80;;;7.50;99.90;;;;;;5064287;28;20452;-82
2023/02/20 09:31:44;;;;;;;27.30;15.13;;;7.70;99.90;;;;;;5063883;28;20458;-82
2023/02/20 09:34:10;;;;;;;19.97;12.30;;;7.70;99.90;;;;;;5063698;28;20845;-80
2023/02/20 09:36:37;;;;;;;16.50;13.63;;;7.90;99.90;;;;;;5064002;28;20447;-82
2023/02/20 09:39:04;;;;;;;16.00;10.33;;;7.70;99.90;;;;;;5064303;28;20452;-83
2023/02/20 09:41:44;;;;;;;22.07;13.07;;;7.90;99.90;;;;;;5065344;28;20451;-81
2023/02/20 09:44:17;;;;;;;17.20;9.70;;;7.90;99.90;;;;;;5062931;28;20474;-80
2023/02/20 09:46:48;;;;;;;29.07;12.20;;;8.00;99.90;;;;;;5059179;28;20479;-81
2023/02/20 09:49:19;;;;;;;22.37;11.20;;;7.90;99.90;;;;;;5060905;28;20546;-80
2023/02/20 09:51:55;;;;;;;24.20;10.10;;;8.00;99.90;;;;;;5060845;28;20436;-81
2023/02/20 09:54:27;;;;;;;17.33;9.77;;;8.10;99.90;;;;;;5058722;28;20480;-81
2023/02/20 09:56:58;;;;;;;22.03;9.37;;;8.00;99.90;;;;;;5059852;28;20531;-81
2023/02/20 09:59:30;;;;;;;22.07;11.50;;;8.00;99.90;;;;;;5060047;28;20526;-81
2023/02/20 10:02:01;;;;;;;13.80;9.80;;;8.00;99.90;;;;;;5058838;28;20480;-81
2023/02/20 10:04:34;;;;;;;25.33;9.63;;;8.10;99.90;;;;;;5058459;28;20475;-81
2023/02/20 10:07:13;;;;;;;13.67;7.90;;;8.00;99.90;;;;;;5058323;28;20547;-80
2023/02/20 10:09:40;;;;;;;22.50;11.57;;;8.00;99.90;;;;;;5058948;28;20879;-82
2023/02/20 10:12:16;;;;;;;14.33;10.60;;;8.10;99.90;;;;;;5058487;28;20456;-81
2023/02/20 10:15:07;;;;;;;12.80;9.03;;;8.00;99.90;;;;;;5059140;28;20459;-81
2023/02/20 10:17:45;;;;;;;23.57;11.30;;;8.20;99.90;;;;;;5058755;28;20436;-83
2023/02/20 10:20:17;;;;;;;17.67;9.87;;;8.30;99.90;;;;;;5058359;28;20493;-81
2023/02/20 10:22:53;;;;;;;15.60;9.97;;;8.50;99.90;;;;;;5058532;28;21017;-81
2023/02/20 10:25:27;;;;;;;17.40;9.73;;;8.50;99.90;;;;;;5058822;28;20455;-81
2023/02/20 10:28:00;;;;;;;18.70;10.10;;;8.60;99.90;;;;;;5058699;28;20451;-82
2023/02/20 10:30:33;;;;;;;17.87;10.57;;;8.70;99.90;;;;;;5058494;28;20451;-81
2023/02/20 10:33:13;;;;;;;21.47;10.97;;;8.70;99.90;;;;;;5058553;28;20477;-82
2023/02/20 10:35:44;;;;;;;16.53;11.40;;;8.80;99.90;;;;;;5057715;28;20478;-80
2023/02/20 10:38:15;;;;;;;17.00;9.77;;;8.80;99.90;;;;;;5056267;28;20451;-80
2023/02/20 10:40:46;;;;;;;25.00;11.60;;;8.70;99.90;;;;;;5056621;28;20800;-81
2023/02/20 10:43:19;;;;;;;19.42;10.77;;;8.80;99.90;;;;;;5056670;28;20456;-80
2023/02/20 10:45:54;;;;;;;19.17;10.30;;;8.70;99.90;;;;;;5057834;28;20239;-81
2023/02/20 10:48:26;;;;;;;23.83;11.60;;;8.80;99.90;;;;;;5057968;28;20451;-80
2023/02/20 10:51:02;;;;;;;15.43;9.60;;;8.80;99.90;;;;;;5057939;28;20458;-80
2023/02/20 10:53:35;;;;;;;22.47;10.63;;;8.80;99.90;;;;;;5058280;28;20482;-81
2023/02/20 10:56:10;;;;;;;15.37;9.13;;;8.80;99.90;;;;;;5058067;28;20460;-81
2023/02/20 10:58:42;;;;;;;18.93;9.33;;;8.90;99.90;;;;;;5058450;28;20481;-81
2023/02/20 11:01:11;;;;;;;17.93;9.67;;;8.80;99.90;;;;;;5058180;28;20443;-82
2023/02/20 11:03:47;;;;;;;23.17;10.90;;;8.90;99.90;;;;;;5058372;28;20475;-82
2023/02/20 11:06:17;;;;;;;20.20;10.90;;;8.90;99.90;;;;;;5058595;28;20431;-82
2023/02/20 11:08:46;;;;;;;15.80;8.20;;;8.80;99.90;;;;;;5059665;28;20446;-80
2023/02/20 11:11:27;;;;;;;19.40;10.30;;;8.80;99.90;;;;;;5057636;28;20523;-79
2023/02/20 11:13:54;;;;;;;16.47;10.60;;;8.70;99.90;;;;;;5057705;28;20471;-80
2023/02/20 11:16:29;;;;;;;22.53;8.60;;;8.70;99.90;;;;;;5057996;28;20485;-81
2023/02/20 11:19:07;;;;;;;17.40;9.27;;;8.60;99.90;;;;;;5057985;28;20443;-80
2023/02/20 11:21:37;;;;;;;16.30;11.40;;;8.70;99.90;;;;;;5058193;28;20793;-80
2023/02/20 11:24:19;;;;;;;18.73;9.90;;;8.90;99.90;;;;;;5058212;28;20475;-80
2023/02/20 11:26:49;;;;;;;23.33;11.00;;;8.90;99.90;;;;;;5057888;28;20432;-80
2023/02/20 11:29:19;;;;;;;21.60;10.03;;;8.90;99.90;;;;;;5058480;28;20473;-80
2023/02/20 11:31:46;;;;;;;23.10;11.27;;;8.80;99.90;;;;;;5061922;28;20455;-80
2023/02/20 11:34:18;;;;;;;26.20;11.03;;;9.10;99.90;;;;;;5061683;28;20471;-81
2023/02/20 11:36:48;;;;;;;21.30;10.30;;;9.30;99.90;;;;;;5061819;28;20912;-81
2023/02/20 11:39:24;;;;;;;19.60;10.00;;;9.40;99.90;;;;;;5062867;28;20486;-80
2023/02/20 11:42:06;;;;;;;16.47;9.97;;;9.30;99.90;;;;;;5061782;28;20812;-80
2023/02/20 11:44:33;;;;;;;15.93;9.63;;;9.20;99.90;;;;;;5061751;28;20427;-80
2023/02/20 11:47:21;;;;;;;25.57;12.30;;;9.10;99.90;;;;;;5061796;28;20538;-80
2023/02/20 11:49:50;;;;;;;27.90;15.03;;;9.10;99.90;;;;;;5061917;28;20431;-80
2023/02/20 11:52:18;;;;;;;23.10;12.80;;;9.40;99.90;;;;;;5061715;28;20457;-82
2023/02/20 11:55:10;;;;;;;23.27;13.00;;;9.30;99.90;;;;;;5066154;28;20827;-79
2023/02/20 11:57:42;;;;;;;24.70;14.87;;;9.20;99.90;;;;;;5066962;28;20475;-81
2023/02/20 12:00:16;;;;;;;21.10;11.73;;;9.40;99.90;;;;;;5061685;28;20459;-81
2023/02/20 12:02:50;;;;;;;26.67;12.07;;;9.50;99.90;;;;;;5063065;28;20551;-80
2023/02/20 12:05:20;;;;;;;22.70;13.30;;;9.30;99.90;;;;;;5064060;28;20436;-81
2023/02/20 12:07:57;;;;;;;23.10;13.67;;;9.40;99.90;;;;;;5062111;28;20539;-81
2023/02/20 12:10:41;;;;;;;24.53;13.30;;;9.50;99.90;;;;;;5063699;28;20554;-82
2023/02/20 12:13:13;;;;;;;19.10;11.90;;;9.40;99.90;;;;;;5064163;28;20479;-82
2023/02/20 12:15:41;;;;;;;19.60;8.90;;;9.30;99.90;;;;;;5065582;28;20455;-82
2023/02/20 12:18:49;;;;;;;19.57;11.47;;;9.20;99.90;;;;;;5066568;28;20479;-80
2023/02/20 12:21:37;;;;;;;19.80;10.70;;;9.00;99.90;;;;;;5066183;28;20451;-81
2023/02/20 12:24:17;;;;;;;21.20;13.30;;;9.00;99.90;;;;;;5062538;28;20466;-81
2023/02/20 12:26:59;;;;;;;16.07;11.20;;;9.10;99.90;;;;;;5063804;28;20447;-81
2023/02/20 12:29:40;;;;;;;21.60;12.27;;;9.20;99.90;;;;;;5063139;28;20462;-80
2023/02/20 12:32:20;;;;;;;20.93;10.50;;;9.60;99.90;;;;;;5060256;28;20891;-84
2023/02/20 12:35:00;;;;;;;26.30;11.97;;;9.80;99.90;;;;;;5062085;28;20438;-79
2023/02/20 12:37:39;;;;;;;28.13;12.73;;;10.10;99.90;;;;;;5063587;28;20471;-81
2023/02/20 12:40:28;;;;;;;18.50;11.30;;;10.10;99.90;;;;;;5061502;28;20442;-81
2023/02/20 12:43:04;;;;;;;17.50;10.23;;;9.70;99.90;;;;;;5059407;28;20483;-81
2023/02/20 12:45:39;;;;;;;23.03;11.70;;;9.40;99.90;;;;;;5061190;28;20440;-81
2023/02/20 12:48:20;;;;;;;14.47;9.33;;;9.10;99.90;;;;;;5061052;28;20439;-80
2023/02/20 12:51:07;;;;;;;19.70;10.20;;;9.10;99.90;;;;;;5060927;28;20431;-81
2023/02/20 12:53:59;;;;;;;19.10;10.53;;;9.00;99.90;;;;;;5060591;28;20478;-81
2023/02/20 12:56:38;;;;;;;19.20;12.63;;;9.00;99.90;;;;;;5060028;28;20475;-80
2023/02/20 12:59:14;;;;;;;21.43;10.83;;;9.00;99.90;;;;;;5060668;28;20511;-81
2023/02/20 13:01:41;;;;;;;21.13;10.20;;;8.90;99.90;;;;;;5060930;28;20801;-80